createdAt,value
2022-11-18T00:01:22.644Z,8.45
2022-11-18T00:03:51.925Z,8.23
2022-11-18T00:06:21.625Z,8.07
2022-11-18T00:08:49.967Z,8.43
2022-11-18T00:11:36.757Z,9.30
2022-11-18T00:14:21.129Z,8.95
2022-11-18T00:16:51.850Z,8.90
2022-11-18T00:19:22.052Z,8.40
2022-11-18T00:21:50.779Z,8.13
2022-11-18T00:24:19.477Z,7.80
2022-11-18T00:26:49.256Z,7.78
2022-11-18T00:29:17.954Z,7.63
2022-11-18T00:31:46.504Z,7.70
2022-11-18T00:34:16.652Z,7.88
2022-11-18T00:36:45.701Z,8.10
2022-11-18T00:39:17.002Z,7.55
2022-11-18T00:42:03.621Z,7.60
2022-11-18T00:44:34.186Z,7.13
2022-11-18T00:47:02.409Z,7.47
2022-11-18T00:49:30.747Z,7.38
2022-11-18T00:51:59.053Z,5.45
2022-11-18T00:54:27.189Z,5.88
2022-11-18T00:56:55.332Z,6.55
2022-11-18T00:59:23.565Z,7.95
2022-11-18T01:01:53.756Z,8.10
2022-11-18T01:04:22.068Z,7.55
2022-11-18T01:06:50.381Z,7.30
2022-11-18T01:09:19.028Z,8.32
2022-11-18T01:12:05.018Z,7.97
2022-11-18T01:14:34.029Z,7.35
2022-11-18T01:17:03.604Z,8.88
2022-11-18T01:19:32.152Z,9.30
2022-11-18T01:22:03.309Z,9.00
2022-11-18T01:24:32.220Z,9.50
2022-11-18T01:27:00.870Z,8.55
2022-11-18T01:29:32.129Z,9.57
2022-11-18T01:34:50.512Z,10.35
2022-11-18T01:37:19.582Z,11.77
2022-11-18T01:39:47.772Z,10.98
2022-11-18T01:42:18.200Z,11.85
2022-11-18T01:45:02.191Z,10.30
2022-11-18T01:47:35.187Z,10.40
2022-11-18T01:50:07.957Z,13.88
2022-11-18T01:52:37.984Z,12.55
2022-11-18T01:55:12.206Z,13.50
2022-11-18T01:57:41.983Z,11.20
2022-11-18T02:00:11.614Z,11.27
2022-11-18T02:02:41.296Z,11.38
2022-11-18T02:05:12.766Z,13.65
2022-11-18T02:07:44.357Z,13.48
2022-11-18T02:10:20.849Z,14.48
2022-11-18T02:12:51.428Z,13.13
2022-11-18T02:15:24.953Z,13.48
2022-11-18T02:18:00.381Z,13.93
2022-11-18T02:20:34.313Z,11.65
2022-11-18T02:23:29.116Z,13.20
2022-11-18T02:26:27.782Z,12.18
2022-11-18T02:29:05.675Z,12.05
2022-11-18T02:31:40.849Z,11.52
2022-11-18T02:34:16.786Z,12.07
2022-11-18T02:36:51.896Z,10.07
2022-11-18T02:39:25.082Z,10.13
2022-11-18T02:41:57.849Z,9.60
2022-11-18T02:44:30.796Z,10.90
2022-11-18T02:47:09.593Z,11.57
2022-11-18T02:49:41.558Z,9.57
2022-11-18T02:52:12.959Z,10.45
2022-11-18T02:54:44.352Z,10.68
2022-11-18T02:57:13.179Z,12.10
2022-11-18T02:59:43.646Z,12.70
2022-11-18T03:02:16.932Z,13.07
2022-11-18T03:04:47.466Z,15.07
2022-11-18T03:07:22.319Z,12.40
2022-11-18T03:09:53.691Z,12.40
2022-11-18T03:12:30.218Z,14.52
2022-11-18T03:15:08.660Z,14.70
2022-11-18T03:17:47.108Z,12.35
2022-11-18T03:20:22.847Z,13.48
2022-11-18T03:22:57.290Z,13.13
2022-11-18T03:25:30.531Z,12.20
2022-11-18T03:28:08.625Z,13.27
2022-11-18T03:30:43.685Z,12.00
2022-11-18T03:33:16.969Z,12.70
2022-11-18T03:35:48.873Z,13.05
2022-11-18T03:38:20.329Z,13.45
2022-11-18T03:40:53.520Z,11.68
2022-11-18T03:43:27.669Z,12.75
2022-11-18T03:46:03.806Z,12.00
2022-11-18T03:48:36.468Z,12.60
2022-11-18T03:51:09.115Z,13.55
2022-11-18T03:53:42.934Z,12.35
2022-11-18T03:56:17.365Z,13.15
2022-11-18T03:58:51.068Z,13.30
2022-11-18T04:01:26.808Z,13.50
2022-11-18T04:03:55.233Z,12.20
2022-11-18T04:06:29.857Z,11.93
2022-11-18T04:09:04.355Z,13.35
2022-11-18T04:11:55.209Z,14.38
2022-11-18T04:14:23.535Z,13.70
2022-11-18T04:16:54.136Z,13.63
2022-11-18T04:19:22.850Z,12.27
2022-11-18T04:21:52.450Z,13.10
2022-11-18T04:24:20.627Z,12.98
2022-11-18T04:26:49.721Z,13.05
2022-11-18T04:29:18.199Z,12.77
2022-11-18T04:31:47.684Z,14.00
2022-11-18T04:34:17.813Z,14.05
2022-11-18T04:36:46.363Z,14.60
2022-11-18T04:39:15.429Z,13.50
2022-11-18T04:41:59.077Z,13.00
2022-11-18T04:44:28.530Z,12.70
2022-11-18T04:46:58.015Z,13.07
2022-11-18T04:49:28.640Z,14.52
2022-11-18T04:51:58.052Z,14.77
2022-11-18T04:54:27.689Z,14.75
2022-11-18T04:56:57.063Z,14.90
2022-11-18T04:59:27.671Z,14.68
2022-11-18T05:01:57.348Z,15.45
2022-11-18T05:04:28.519Z,14.73
2022-11-18T05:06:57.345Z,15.52
2022-11-18T05:09:31.363Z,15.77
2022-11-18T05:12:17.807Z,16.60
2022-11-18T05:14:50.068Z,16.42
2022-11-18T05:17:20.701Z,16.77
2022-11-18T05:19:50.251Z,16.13
2022-11-18T05:22:18.649Z,16.02
2022-11-18T05:24:46.860Z,16.08
2022-11-18T05:27:16.756Z,17.10
2022-11-18T05:29:45.313Z,16.48
2022-11-18T05:32:13.793Z,17.77
2022-11-18T05:34:42.868Z,17.10
2022-11-18T05:37:12.555Z,19.23
2022-11-18T05:39:40.767Z,20.60
2022-11-18T05:42:26.504Z,19.38
2022-11-18T05:44:58.501Z,20.17
2022-11-18T05:47:27.933Z,19.20
2022-11-18T05:49:56.449Z,18.65
2022-11-18T05:52:26.004Z,19.08
2022-11-18T05:54:54.288Z,20.88
2022-11-18T05:57:23.090Z,18.85
2022-11-18T05:59:51.292Z,20.35
2022-11-18T06:02:24.414Z,20.48
2022-11-18T06:04:58.291Z,20.75
2022-11-18T06:07:31.833Z,19.77
2022-11-18T06:10:05.546Z,20.85
2022-11-18T06:12:42.459Z,21.80
2022-11-18T06:15:17.037Z,23.15
2022-11-18T06:17:50.305Z,23.27
2022-11-18T06:20:20.806Z,22.80
2022-11-18T06:22:57.691Z,21.20
2022-11-18T06:25:26.263Z,22.48
2022-11-18T06:27:58.309Z,21.63
2022-11-18T06:30:26.475Z,22.73
2022-11-18T06:32:54.750Z,22.15
2022-11-18T06:35:23.294Z,21.33
2022-11-18T06:37:52.845Z,21.20
2022-11-18T06:40:22.052Z,22.33
2022-11-18T06:43:08.141Z,20.00
2022-11-18T06:45:37.226Z,16.55
2022-11-18T06:48:05.700Z,18.67
2022-11-18T06:50:34.313Z,22.05
2022-11-18T06:53:04.092Z,18.85
2022-11-18T06:55:32.230Z,17.48
2022-11-18T06:58:00.402Z,19.00
2022-11-18T07:00:28.536Z,16.15
2022-11-18T07:02:57.053Z,15.98
2022-11-18T07:05:25.288Z,17.30
2022-11-18T07:07:54.351Z,18.25
2022-11-18T07:10:24.417Z,18.10
2022-11-18T07:12:52.524Z,15.65
2022-11-18T07:15:20.923Z,15.98
2022-11-18T07:17:49.093Z,14.80
2022-11-18T07:20:17.705Z,19.73
2022-11-18T07:22:45.998Z,15.18
2022-11-18T07:25:14.516Z,17.27
2022-11-18T07:27:44.161Z,16.00
2022-11-18T07:30:13.625Z,18.08
2022-11-18T07:32:41.851Z,16.27
2022-11-18T07:35:10.808Z,12.43
2022-11-18T07:37:39.000Z,12.35
2022-11-18T07:40:08.720Z,13.00
2022-11-18T07:42:42.711Z,15.48
2022-11-18T07:45:13.816Z,14.65
2022-11-18T07:47:43.460Z,17.92
2022-11-18T07:50:11.699Z,13.23
2022-11-18T07:52:40.539Z,15.70
2022-11-18T07:55:09.520Z,13.57
2022-11-18T07:57:38.447Z,13.98
2022-11-18T08:00:07.896Z,13.85
2022-11-18T08:02:37.496Z,14.82
2022-11-18T08:05:06.440Z,13.95
2022-11-18T08:07:34.824Z,15.82
2022-11-18T08:10:03.653Z,15.77
2022-11-18T08:12:32.724Z,15.13
2022-11-18T08:15:00.896Z,15.88
2022-11-18T08:17:29.268Z,15.50
2022-11-18T08:19:59.387Z,17.10
2022-11-18T08:22:27.917Z,16.45
2022-11-18T08:24:57.016Z,15.98
2022-11-18T08:27:25.396Z,16.88
2022-11-18T08:29:54.419Z,16.48
2022-11-18T08:32:22.686Z,17.75
2022-11-18T08:34:51.920Z,16.80
2022-11-18T08:37:21.999Z,18.65
2022-11-18T08:39:50.942Z,19.20
2022-11-18T08:42:24.329Z,17.90
2022-11-18T08:44:53.181Z,18.90
2022-11-18T08:47:21.402Z,24.58
2022-11-18T08:49:50.433Z,16.55
2022-11-18T08:52:18.959Z,16.55
2022-11-18T08:54:48.535Z,21.85
2022-11-18T08:57:17.757Z,32.45
2022-11-18T08:59:47.288Z,19.48
2022-11-18T09:02:16.839Z,18.70
2022-11-18T09:04:45.091Z,15.57
2022-11-18T09:07:14.086Z,14.38
2022-11-18T09:09:42.334Z,15.43
2022-11-18T09:12:14.923Z,15.32
2022-11-18T09:15:12.962Z,16.08
2022-11-18T09:17:35.279Z,15.73
2022-11-18T09:20:03.705Z,16.27
2022-11-18T09:22:31.933Z,16.23
2022-11-18T09:25:00.461Z,16.75
2022-11-18T09:27:31.108Z,17.45
2022-11-18T09:30:00.319Z,16.63
2022-11-18T09:32:28.666Z,18.00
2022-11-18T09:34:56.817Z,15.52
2022-11-18T09:37:25.119Z,18.05
2022-11-18T09:39:53.414Z,16.73
2022-11-18T09:42:47.437Z,17.08
2022-11-18T09:45:25.202Z,16.08
2022-11-18T09:47:58.798Z,15.77
2022-11-18T09:50:49.537Z,14.93
2022-11-18T09:53:20.648Z,15.02
2022-11-18T09:55:50.135Z,18.65
2022-11-18T09:58:24.214Z,16.52
2022-11-18T10:00:52.748Z,16.67
2022-11-18T10:03:29.556Z,19.30
2022-11-18T10:06:03.840Z,14.80
2022-11-18T10:08:37.975Z,14.85
2022-11-18T10:11:12.737Z,16.92
2022-11-18T10:13:54.241Z,16.25
2022-11-18T10:16:33.960Z,18.88
2022-11-18T10:19:12.897Z,18.52
2022-11-18T10:21:56.489Z,15.30
2022-11-18T10:24:27.826Z,15.57
2022-11-18T10:27:00.912Z,15.68
2022-11-18T10:29:30.558Z,15.82
2022-11-18T10:32:04.597Z,15.93
2022-11-18T10:34:33.594Z,15.80
2022-11-18T10:37:04.057Z,19.77
2022-11-18T10:39:34.944Z,18.23
2022-11-18T10:42:06.838Z,19.88
2022-11-18T10:44:41.629Z,16.92
2022-11-18T10:47:28.807Z,17.92
2022-11-18T10:49:59.494Z,16.98
2022-11-18T10:52:29.861Z,16.63
2022-11-18T10:55:23.670Z,17.92
2022-11-18T10:57:59.287Z,17.02
2022-11-18T11:00:47.596Z,16.25
2022-11-18T11:03:28.332Z,12.82
2022-11-18T11:06:31.105Z,13.93
2022-11-18T11:09:01.981Z,14.00
2022-11-18T11:11:32.256Z,17.90
2022-11-18T11:14:14.757Z,10.30
2022-11-18T11:16:49.779Z,9.63
2022-11-18T11:19:22.942Z,9.60
2022-11-18T11:21:51.877Z,11.98
2022-11-18T11:24:21.031Z,10.60
2022-11-18T11:30:04.479Z,7.95
2022-11-18T11:32:59.085Z,8.68
2022-11-18T11:35:31.311Z,8.73
2022-11-18T11:38:01.344Z,9.02
2022-11-18T11:40:34.761Z,8.60
2022-11-18T11:43:24.266Z,8.60
2022-11-18T11:46:17.861Z,7.72
2022-11-18T11:48:58.924Z,8.15
2022-11-18T11:51:36.202Z,8.50
2022-11-18T11:54:16.899Z,13.38
2022-11-18T11:56:50.556Z,8.98
2022-11-18T11:59:28.748Z,8.60
2022-11-18T12:02:08.441Z,8.35
2022-11-18T12:04:44.848Z,8.32
2022-11-18T12:07:19.637Z,9.15
2022-11-18T12:10:24.905Z,9.55
2022-11-18T12:13:02.285Z,10.95
2022-11-18T12:15:44.642Z,9.20
2022-11-18T12:18:21.077Z,11.00
2022-11-18T12:20:52.495Z,8.02
2022-11-18T12:23:22.994Z,8.75
2022-11-18T12:26:06.400Z,7.55
2022-11-18T12:28:38.847Z,7.80
2022-11-18T12:31:43.440Z,7.93
2022-11-18T12:34:32.296Z,7.05
2022-11-18T12:37:39.985Z,6.68
2022-11-18T12:40:10.965Z,7.72
2022-11-18T12:43:04.210Z,7.43
2022-11-18T12:46:00.555Z,8.45
2022-11-18T12:48:35.711Z,9.52
2022-11-18T12:51:49.524Z,11.13
2022-11-18T12:54:32.455Z,6.80
2022-11-18T12:57:04.221Z,6.45
2022-11-18T12:59:39.031Z,5.65
2022-11-18T13:02:21.534Z,6.13
2022-11-18T13:05:07.852Z,5.72
2022-11-18T13:08:01.668Z,7.22
2022-11-18T13:10:33.999Z,6.43
2022-11-18T13:13:06.377Z,6.47
2022-11-18T13:15:52.731Z,6.28
2022-11-18T13:18:22.244Z,7.03
2022-11-18T13:21:20.815Z,7.05
2022-11-18T13:24:00.385Z,7.13
2022-11-18T13:26:33.290Z,7.60
2022-11-18T13:29:16.912Z,7.43
2022-11-18T13:31:55.556Z,7.10
2022-11-18T13:34:26.713Z,6.55
2022-11-18T13:36:56.395Z,7.85
2022-11-18T13:39:26.402Z,6.88
2022-11-18T13:42:03.457Z,7.00
2022-11-18T13:44:33.792Z,7.07
2022-11-18T13:47:10.898Z,6.82
2022-11-18T13:49:50.967Z,7.22
2022-11-18T13:52:23.756Z,8.27
2022-11-18T13:54:55.014Z,8.27
2022-11-18T13:57:28.257Z,8.18
2022-11-18T13:59:57.714Z,7.53
2022-11-18T14:02:26.338Z,7.18
2022-11-18T14:04:57.503Z,7.45
2022-11-18T14:07:32.356Z,7.63
2022-11-18T14:10:04.310Z,7.85
2022-11-18T14:12:35.347Z,7.70
2022-11-18T14:15:21.501Z,6.88
2022-11-18T14:17:55.973Z,7.10
2022-11-18T14:20:25.876Z,7.20
2022-11-18T14:22:57.524Z,6.25
2022-11-18T14:25:30.249Z,6.85
2022-11-18T14:28:13.252Z,6.78
2022-11-18T14:30:44.010Z,7.05
2022-11-18T14:33:20.699Z,6.07
2022-11-18T14:35:55.496Z,5.93
2022-11-18T14:38:40.561Z,6.55
2022-11-18T14:41:13.945Z,6.82
2022-11-18T14:43:46.101Z,6.93
2022-11-18T14:46:17.306Z,5.90
2022-11-18T14:48:46.077Z,5.93
2022-11-18T14:51:15.668Z,6.07
2022-11-18T14:53:44.742Z,6.13
2022-11-18T14:56:17.878Z,5.90
2022-11-18T14:58:47.388Z,5.88
2022-11-18T15:01:16.010Z,5.18
2022-11-18T15:03:44.432Z,4.68
2022-11-18T15:06:15.215Z,4.45
2022-11-18T15:08:44.042Z,4.50
2022-11-18T15:11:12.659Z,4.75
2022-11-18T15:13:41.405Z,4.82
2022-11-18T15:16:15.948Z,4.63
2022-11-18T15:18:46.646Z,4.88
2022-11-18T15:21:15.549Z,4.88
2022-11-18T15:23:43.969Z,4.15
2022-11-18T15:26:19.947Z,5.00
2022-11-18T15:28:48.475Z,4.93
2022-11-18T15:31:19.417Z,5.47
2022-11-18T15:33:48.519Z,5.93
2022-11-18T15:36:20.065Z,4.90
2022-11-18T15:38:49.205Z,5.47
2022-11-18T15:41:20.501Z,4.75
2022-11-18T15:43:49.463Z,3.90
2022-11-18T15:46:20.621Z,5.60
2022-11-18T15:48:52.516Z,4.75
2022-11-18T15:51:21.122Z,4.28
2022-11-18T15:53:49.300Z,4.27
2022-11-18T15:56:26.564Z,3.03
2022-11-18T15:58:56.846Z,3.20
2022-11-18T16:01:28.788Z,3.47
2022-11-18T16:03:57.411Z,3.20
2022-11-18T16:06:27.969Z,3.22
2022-11-18T16:08:59.928Z,3.57
2022-11-18T16:11:47.164Z,3.50
2022-11-18T16:14:18.708Z,4.13
2022-11-18T16:16:50.863Z,4.17
2022-11-18T16:19:20.997Z,4.53
2022-11-18T16:21:54.455Z,4.27
2022-11-18T16:24:25.706Z,4.43
2022-11-18T16:26:55.023Z,4.70
2022-11-18T16:29:24.208Z,4.40
2022-11-18T16:31:54.848Z,4.30
2022-11-18T16:34:25.095Z,4.83
2022-11-18T16:36:55.084Z,4.63
2022-11-18T16:39:25.771Z,5.13
2022-11-18T16:41:57.604Z,4.83
2022-11-18T16:44:28.014Z,4.87
2022-11-18T16:47:00.912Z,4.80
2022-11-18T16:49:29.432Z,4.17
2022-11-18T16:51:58.618Z,4.67
2022-11-18T16:54:31.785Z,4.73
2022-11-18T16:57:00.943Z,4.67
2022-11-18T16:59:31.818Z,4.07
2022-11-18T17:02:02.078Z,5.50
2022-11-18T17:04:31.193Z,4.43
2022-11-18T17:07:00.707Z,4.83
2022-11-18T17:09:29.621Z,5.33
2022-11-18T17:11:59.595Z,5.00
2022-11-18T17:14:27.821Z,5.27
2022-11-18T17:16:56.025Z,4.97
2022-11-18T17:19:26.235Z,5.13
2022-11-18T17:21:54.507Z,5.10
2022-11-18T17:24:24.518Z,5.10
2022-11-18T17:26:53.671Z,4.97
2022-11-18T17:29:22.267Z,5.57
2022-11-18T17:31:50.970Z,5.27
2022-11-18T17:34:19.810Z,4.67
2022-11-18T17:36:49.791Z,4.80
2022-11-18T17:39:20.723Z,4.73
2022-11-18T17:42:06.845Z,4.90
2022-11-18T17:44:35.623Z,4.63
2022-11-18T17:47:03.918Z,4.33
2022-11-18T17:49:32.334Z,4.80
2022-11-18T17:52:01.972Z,5.73
2022-11-18T17:54:30.379Z,5.47
2022-11-18T17:56:58.707Z,5.10
2022-11-18T17:59:27.116Z,5.40
2022-11-18T18:01:59.513Z,6.47
2022-11-18T18:04:29.235Z,7.57
2022-11-18T18:06:57.911Z,8.47
2022-11-18T18:09:30.902Z,8.83
2022-11-18T18:12:22.872Z,8.67
2022-11-18T18:14:50.195Z,9.90
2022-11-18T18:17:18.670Z,10.23
2022-11-18T18:19:47.332Z,9.93
2022-11-18T18:22:15.503Z,10.67
2022-11-18T18:24:45.548Z,11.30
2022-11-18T18:27:14.188Z,12.43
2022-11-18T18:29:42.502Z,12.67
2022-11-18T18:32:13.723Z,12.53
2022-11-18T18:34:42.102Z,12.93
2022-11-18T18:37:10.280Z,12.50
2022-11-18T18:39:38.499Z,13.17
2022-11-18T18:42:08.504Z,12.53
2022-11-18T18:44:54.286Z,13.60
2022-11-18T18:47:22.491Z,13.57
2022-11-18T18:49:51.420Z,14.90
2022-11-18T18:52:20.436Z,14.43
2022-11-18T18:54:48.692Z,14.57
2022-11-18T18:57:18.470Z,15.90
2022-11-18T18:59:46.774Z,15.60
2022-11-18T19:02:14.996Z,15.00
2022-11-18T19:04:44.843Z,13.40
2022-11-18T19:07:13.206Z,14.83
2022-11-18T19:09:41.612Z,13.77
2022-11-18T19:12:28.510Z,14.40
2022-11-18T19:14:58.904Z,14.07
2022-11-18T19:17:27.407Z,14.77
2022-11-18T19:20:12.290Z,13.47
2022-11-18T19:22:41.069Z,15.17
2022-11-18T19:25:11.047Z,15.00
2022-11-18T19:27:40.465Z,15.17
2022-11-18T19:30:12.573Z,15.33
2022-11-18T19:32:43.029Z,15.07
2022-11-18T19:35:12.086Z,16.73
2022-11-18T19:37:41.425Z,16.27
2022-11-18T19:40:11.417Z,17.30
2022-11-18T19:42:40.666Z,16.40
2022-11-18T19:45:12.006Z,16.87
2022-11-18T19:47:40.279Z,17.17
2022-11-18T19:50:09.386Z,15.13
2022-11-18T19:52:37.670Z,17.00
2022-11-18T19:55:07.929Z,17.03
2022-11-18T19:57:36.397Z,15.77
2022-11-18T20:00:05.945Z,17.40
2022-11-18T20:02:39.981Z,16.63
2022-11-18T20:05:27.075Z,16.73
2022-11-18T20:07:56.784Z,15.17
2022-11-18T20:10:25.540Z,18.50
2022-11-18T20:13:05.077Z,19.23
2022-11-18T20:15:35.771Z,18.53
2022-11-18T20:18:14.637Z,18.13
2022-11-18T20:20:48.811Z,18.63
2022-11-18T20:23:41.358Z,18.53
2022-11-18T20:26:15.457Z,20.73
2022-11-18T20:28:55.890Z,18.20
2022-11-18T20:31:48.112Z,19.93
2022-11-18T20:34:43.188Z,21.67
2022-11-18T20:37:18.413Z,19.83
2022-11-18T20:39:49.304Z,20.93
2022-11-18T20:42:54.606Z,22.63
2022-11-18T20:49:35.037Z,21.70
2022-11-18T20:52:15.198Z,21.23
2022-11-18T20:54:50.133Z,22.67
2022-11-18T20:57:25.184Z,25.30
2022-11-18T20:59:57.653Z,24.33
2022-11-18T21:02:32.713Z,26.70
2022-11-18T21:05:05.231Z,26.07
2022-11-18T21:07:37.260Z,24.87
2022-11-18T21:10:12.522Z,24.93
2022-11-18T21:13:09.065Z,24.90
2022-11-18T21:15:45.785Z,25.17
2022-11-18T21:18:17.611Z,25.60
2022-11-18T21:21:12.491Z,27.03
2022-11-18T21:23:42.284Z,25.23
2022-11-18T21:26:16.563Z,27.00
2022-11-18T21:28:52.472Z,27.30
2022-11-18T21:31:24.698Z,25.57
2022-11-18T21:33:58.821Z,27.87
2022-11-18T21:36:32.725Z,26.80
2022-11-18T21:39:08.618Z,26.37
2022-11-18T21:41:40.205Z,26.30
2022-11-18T21:44:10.012Z,26.87
2022-11-18T21:46:40.379Z,29.57
2022-11-18T21:49:09.575Z,28.13
2022-11-18T21:51:39.353Z,27.10
2022-11-18T21:54:08.679Z,28.90
2022-11-18T21:56:36.885Z,27.73
2022-11-18T21:59:06.060Z,30.57
2022-11-18T22:01:34.905Z,30.03
2022-11-18T22:04:05.100Z,29.80
2022-11-18T22:06:35.120Z,27.70
2022-11-18T22:09:06.101Z,28.37
2022-11-18T22:11:34.334Z,30.00
2022-11-18T22:14:03.580Z,28.10
2022-11-18T22:16:32.210Z,29.37
2022-11-18T22:19:06.686Z,29.27
2022-11-18T22:21:36.395Z,29.70
2022-11-18T22:24:07.537Z,28.27
2022-11-18T22:26:35.977Z,26.77
2022-11-18T22:29:04.256Z,29.93
2022-11-18T22:31:32.431Z,26.60
2022-11-18T22:34:00.670Z,27.33
2022-11-18T22:36:28.910Z,28.37
2022-11-18T22:38:57.654Z,28.00
2022-11-18T22:41:46.571Z,28.60
2022-11-18T22:44:17.830Z,27.07
2022-11-18T22:46:47.035Z,26.13
2022-11-18T22:49:15.505Z,26.07
2022-11-18T22:51:43.806Z,25.27
2022-11-18T22:57:02.716Z,25.00
2022-11-18T22:59:31.068Z,27.00
2022-11-18T23:01:59.348Z,26.50
2022-11-18T23:04:27.569Z,25.57
2022-11-18T23:06:57.182Z,25.13
2022-11-18T23:09:25.813Z,23.40
2022-11-18T23:12:11.496Z,24.33
2022-11-18T23:14:41.370Z,25.33
2022-11-18T23:17:10.594Z,26.07
2022-11-18T23:19:41.952Z,24.73
2022-11-18T23:22:10.661Z,24.53
2022-11-18T23:24:39.340Z,26.23
2022-11-18T23:27:08.053Z,23.50
2022-11-18T23:29:36.203Z,24.67
2022-11-18T23:32:06.246Z,22.23
2022-11-18T23:34:34.662Z,24.53
2022-11-18T23:37:03.123Z,26.13
2022-11-18T23:39:31.817Z,24.20
2022-11-18T23:42:00.000Z,23.07
2022-11-18T23:44:42.095Z,25.53
2022-11-18T23:47:11.657Z,23.23
2022-11-18T23:49:43.538Z,26.07
2022-11-18T23:52:12.701Z,25.37
2022-11-18T23:54:41.160Z,23.90
2022-11-18T23:57:09.639Z,23.53
2022-11-18T23:59:37.807Z,25.13
